Disclaimer

Please do not use the information listed here in-flight or in-navigation, as they are not provided to us by the airports but are provided by volunteers, so they might be outdated.

Search


Regions


Airport information page

No radio frequency information is available.

Airport informations:
Latitude: 24° 22' 07.11" S
Longitude: 031° 02' 55.48" E
Elevation: 1743 feet - 531 meters
Operating hours: Remarks
Operating agency: Military
Timezone: UTC+2
Fuel: Jet A1, without icing nhibitor.

100/130 MIL Spec, low lead, aviation gasoline (BLUE)

Runway information:
09/27 - 6939 x 88 feet< - >2115 x 27 meters
18/36 - 13095 x 151 feet< - >3991 x 46 meters

Recent METARs:
FAHS 131500Z AUTO 10007KT //// // ////// 29/12 Q1016
FAHS 131600Z AUTO 07002KT //// // ////// 29/11 Q1017
FAHS 131600Z AUTO 07002KT //// // ////// 29/11 Q1017

Airport on the map: